sensor_id;sensor_type;location;lat;lon;timestamp;temperature;humidity
66928;DHT22;59882;45.624;11.698;2022-07-29T00:02:01;24.70;59.60
66928;DHT22;59882;45.624;11.698;2022-07-29T00:04:27;24.60;60.20
66928;DHT22;59882;45.624;11.698;2022-07-29T00:06:52;24.60;62.40
66928;DHT22;59882;45.624;11.698;2022-07-29T00:09:18;24.30;63.80
66928;DHT22;59882;45.624;11.698;2022-07-29T00:11:44;24.10;64.30
66928;DHT22;59882;45.624;11.698;2022-07-29T00:14:09;24.00;64.60
66928;DHT22;59882;45.624;11.698;2022-07-29T00:16:35;23.90;63.70
66928;DHT22;59882;45.624;11.698;2022-07-29T00:19:01;23.90;64.90
66928;DHT22;59882;45.624;11.698;2022-07-29T00:21:27;24.00;65.10
66928;DHT22;59882;45.624;11.698;2022-07-29T00:23:52;24.00;65.20
66928;DHT22;59882;45.624;11.698;2022-07-29T00:26:18;24.20;64.90
66928;DHT22;59882;45.624;11.698;2022-07-29T00:28:44;24.30;64.60
66928;DHT22;59882;45.624;11.698;2022-07-29T00:31:09;24.40;64.70
66928;DHT22;59882;45.624;11.698;2022-07-29T00:33:35;24.50;64.30
66928;DHT22;59882;45.624;11.698;2022-07-29T00:36:00;24.60;63.90
66928;DHT22;59882;45.624;11.698;2022-07-29T00:38:26;24.70;63.90
66928;DHT22;59882;45.624;11.698;2022-07-29T00:40:52;24.70;63.70
66928;DHT22;59882;45.624;11.698;2022-07-29T00:43:17;24.80;64.30
66928;DHT22;59882;45.624;11.698;2022-07-29T00:45:43;24.90;64.30
66928;DHT22;59882;45.624;11.698;2022-07-29T00:48:09;24.90;64.30
66928;DHT22;59882;45.624;11.698;2022-07-29T00:50:36;24.90;64.40
66928;DHT22;59882;45.624;11.698;2022-07-29T00:53:03;25.00;63.80
66928;DHT22;59882;45.624;11.698;2022-07-29T00:55:30;25.00;64.50
66928;DHT22;59882;45.624;11.698;2022-07-29T00:57:56;24.90;65.00
66928;DHT22;59882;45.624;11.698;2022-07-29T01:00:26;25.00;64.10
66928;DHT22;59882;45.624;11.698;2022-07-29T01:02:52;25.10;63.10
66928;DHT22;59882;45.624;11.698;2022-07-29T01:05:22;25.10;64.40
66928;DHT22;59882;45.624;11.698;2022-07-29T01:07:51;25.10;63.10
66928;DHT22;59882;45.624;11.698;2022-07-29T01:10:18;25.20;64.50
66928;DHT22;59882;45.624;11.698;2022-07-29T01:12:49;25.10;64.60
66928;DHT22;59882;45.624;11.698;2022-07-29T01:15:15;25.20;66.30
66928;DHT22;59882;45.624;11.698;2022-07-29T01:26:01;24.20;63.50
66928;DHT22;59882;45.624;11.698;2022-07-29T01:31:05;24.00;64.10
66928;DHT22;59882;45.624;11.698;2022-07-29T01:33:34;24.00;64.20
66928;DHT22;59882;45.624;11.698;2022-07-29T01:36:28;24.10;64.30
66928;DHT22;59882;45.624;11.698;2022-07-29T01:39:02;24.20;66.00
66928;DHT22;59882;45.624;11.698;2022-07-29T01:41:31;24.20;66.70
66928;DHT22;59882;45.624;11.698;2022-07-29T01:44:01;24.20;67.00
66928;DHT22;59882;45.624;11.698;2022-07-29T01:46:33;24.20;66.90
66928;DHT22;59882;45.624;11.698;2022-07-29T01:49:17;24.20;65.80
66928;DHT22;59882;45.624;11.698;2022-07-29T01:51:49;24.30;66.00
66928;DHT22;59882;45.624;11.698;2022-07-29T01:54:26;24.30;66.00
66928;DHT22;59882;45.624;11.698;2022-07-29T01:56:56;24.30;65.90
66928;DHT22;59882;45.624;11.698;2022-07-29T01:59:23;24.40;66.20
66928;DHT22;59882;45.624;11.698;2022-07-29T02:01:53;24.40;65.70
66928;DHT22;59882;45.624;11.698;2022-07-29T02:04:20;24.40;65.40
66928;DHT22;59882;45.624;11.698;2022-07-29T02:06:49;24.50;64.60
66928;DHT22;59882;45.624;11.698;2022-07-29T02:09:17;24.50;64.70
66928;DHT22;59882;45.624;11.698;2022-07-29T02:11:48;24.50;63.70
66928;DHT22;59882;45.624;11.698;2022-07-29T02:14:17;24.50;64.00
66928;DHT22;59882;45.624;11.698;2022-07-29T02:16:44;24.40;63.80
66928;DHT22;59882;45.624;11.698;2022-07-29T02:19:12;24.40;64.00
66928;DHT22;59882;45.624;11.698;2022-07-29T02:21:38;24.40;64.00
66928;DHT22;59882;45.624;11.698;2022-07-29T02:24:06;24.40;63.80
66928;DHT22;59882;45.624;11.698;2022-07-29T02:26:33;24.40;63.90
66928;DHT22;59882;45.624;11.698;2022-07-29T02:29:00;24.40;64.40
66928;DHT22;59882;45.624;11.698;2022-07-29T02:31:31;24.40;65.00
66928;DHT22;59882;45.624;11.698;2022-07-29T02:33:59;24.40;63.70
66928;DHT22;59882;45.624;11.698;2022-07-29T02:36:27;24.40;62.60
66928;DHT22;59882;45.624;11.698;2022-07-29T02:38:55;24.40;63.70
66928;DHT22;59882;45.624;11.698;2022-07-29T02:41:50;24.40;63.00
66928;DHT22;59882;45.624;11.698;2022-07-29T02:44:19;24.40;62.60
66928;DHT22;59882;45.624;11.698;2022-07-29T02:46:52;24.40;63.10
66928;DHT22;59882;45.624;11.698;2022-07-29T02:52:11;24.40;63.50
66928;DHT22;59882;45.624;11.698;2022-07-29T02:54:59;24.40;63.40
66928;DHT22;59882;45.624;11.698;2022-07-29T02:57:41;24.40;63.50
66928;DHT22;59882;45.624;11.698;2022-07-29T03:00:08;24.40;64.00
66928;DHT22;59882;45.624;11.698;2022-07-29T03:02:42;24.40;64.10
66928;DHT22;59882;45.624;11.698;2022-07-29T03:05:12;24.40;64.00
66928;DHT22;59882;45.624;11.698;2022-07-29T03:07:38;24.30;64.00
66928;DHT22;59882;45.624;11.698;2022-07-29T03:10:06;24.20;63.80
66928;DHT22;59882;45.624;11.698;2022-07-29T03:12:34;24.20;64.00
66928;DHT22;59882;45.624;11.698;2022-07-29T03:15:01;24.10;64.30
66928;DHT22;59882;45.624;11.698;2022-07-29T03:17:27;24.10;64.20
66928;DHT22;59882;45.624;11.698;2022-07-29T03:19:53;24.00;64.90
66928;DHT22;59882;45.624;11.698;2022-07-29T03:22:20;23.90;65.40
66928;DHT22;59882;45.624;11.698;2022-07-29T03:24:45;23.90;65.60
66928;DHT22;59882;45.624;11.698;2022-07-29T03:27:11;23.90;66.20
66928;DHT22;59882;45.624;11.698;2022-07-29T03:29:37;23.80;66.20
66928;DHT22;59882;45.624;11.698;2022-07-29T03:32:04;23.80;65.90
66928;DHT22;59882;45.624;11.698;2022-07-29T03:34:30;23.80;66.40
66928;DHT22;59882;45.624;11.698;2022-07-29T03:36:56;23.80;66.70
66928;DHT22;59882;45.624;11.698;2022-07-29T03:39:24;23.80;66.80
66928;DHT22;59882;45.624;11.698;2022-07-29T03:41:53;23.90;66.80
66928;DHT22;59882;45.624;11.698;2022-07-29T03:44:20;23.80;66.60
66928;DHT22;59882;45.624;11.698;2022-07-29T03:46:48;23.90;66.90
66928;DHT22;59882;45.624;11.698;2022-07-29T03:49:15;23.90;67.40
66928;DHT22;59882;45.624;11.698;2022-07-29T03:51:42;23.90;67.60
66928;DHT22;59882;45.624;11.698;2022-07-29T03:54:07;23.90;67.10
66928;DHT22;59882;45.624;11.698;2022-07-29T03:56:38;24.00;67.00
66928;DHT22;59882;45.624;11.698;2022-07-29T03:59:05;24.10;67.40
66928;DHT22;59882;45.624;11.698;2022-07-29T04:01:33;24.10;67.20
66928;DHT22;59882;45.624;11.698;2022-07-29T04:04:03;24.20;66.10
66928;DHT22;59882;45.624;11.698;2022-07-29T04:06:40;24.20;65.70
66928;DHT22;59882;45.624;11.698;2022-07-29T04:09:07;24.30;65.00
66928;DHT22;59882;45.624;11.698;2022-07-29T04:11:33;24.30;64.80
66928;DHT22;59882;45.624;11.698;2022-07-29T04:13:58;24.20;64.20
66928;DHT22;59882;45.624;11.698;2022-07-29T04:16:24;24.10;63.60
66928;DHT22;59882;45.624;11.698;2022-07-29T04:18:50;24.00;63.80
66928;DHT22;59882;45.624;11.698;2022-07-29T04:21:15;24.00;63.60
66928;DHT22;59882;45.624;11.698;2022-07-29T04:23:41;23.90;63.20
66928;DHT22;59882;45.624;11.698;2022-07-29T04:26:07;23.90;63.40
66928;DHT22;59882;45.624;11.698;2022-07-29T04:28:36;23.80;63.70
66928;DHT22;59882;45.624;11.698;2022-07-29T04:31:01;23.80;63.90
66928;DHT22;59882;45.624;11.698;2022-07-29T04:33:27;23.80;64.00
66928;DHT22;59882;45.624;11.698;2022-07-29T04:35:52;23.70;64.20
66928;DHT22;59882;45.624;11.698;2022-07-29T04:38:18;23.70;64.50
66928;DHT22;59882;45.624;11.698;2022-07-29T04:40:44;23.70;64.60
66928;DHT22;59882;45.624;11.698;2022-07-29T04:43:09;23.70;64.80
66928;DHT22;59882;45.624;11.698;2022-07-29T04:45:35;23.70;64.70
66928;DHT22;59882;45.624;11.698;2022-07-29T04:48:00;23.80;64.40
66928;DHT22;59882;45.624;11.698;2022-07-29T04:50:26;23.80;64.80
66928;DHT22;59882;45.624;11.698;2022-07-29T04:52:52;23.70;64.90
66928;DHT22;59882;45.624;11.698;2022-07-29T04:55:17;23.80;64.90
66928;DHT22;59882;45.624;11.698;2022-07-29T04:57:43;23.70;64.70
66928;DHT22;59882;45.624;11.698;2022-07-29T05:00:09;23.70;64.70
66928;DHT22;59882;45.624;11.698;2022-07-29T05:02:35;23.80;65.30
66928;DHT22;59882;45.624;11.698;2022-07-29T05:05:00;23.80;65.50
66928;DHT22;59882;45.624;11.698;2022-07-29T05:07:26;23.90;65.60
66928;DHT22;59882;45.624;11.698;2022-07-29T05:09:52;23.90;65.60
66928;DHT22;59882;45.624;11.698;2022-07-29T05:12:18;23.90;65.70
66928;DHT22;59882;45.624;11.698;2022-07-29T05:14:43;23.90;65.70
66928;DHT22;59882;45.624;11.698;2022-07-29T05:17:09;23.90;65.90
66928;DHT22;59882;45.624;11.698;2022-07-29T05:19:35;24.00;66.10
66928;DHT22;59882;45.624;11.698;2022-07-29T05:22:00;24.00;66.10
66928;DHT22;59882;45.624;11.698;2022-07-29T05:24:26;23.80;65.80
66928;DHT22;59882;45.624;11.698;2022-07-29T05:26:52;23.80;65.90
66928;DHT22;59882;45.624;11.698;2022-07-29T05:29:17;23.80;65.90
66928;DHT22;59882;45.624;11.698;2022-07-29T05:31:43;23.80;65.90
66928;DHT22;59882;45.624;11.698;2022-07-29T05:34:09;23.90;66.10
66928;DHT22;59882;45.624;11.698;2022-07-29T05:36:34;23.90;65.80
66928;DHT22;59882;45.624;11.698;2022-07-29T05:39:00;24.00;65.40
66928;DHT22;59882;45.624;11.698;2022-07-29T05:41:26;24.00;64.60
66928;DHT22;59882;45.624;11.698;2022-07-29T05:43:51;24.10;63.80
66928;DHT22;59882;45.624;11.698;2022-07-29T05:46:17;24.20;64.00
66928;DHT22;59882;45.624;11.698;2022-07-29T05:48:42;24.20;64.20
66928;DHT22;59882;45.624;11.698;2022-07-29T05:51:08;24.30;63.80
66928;DHT22;59882;45.624;11.698;2022-07-29T05:53:34;24.30;63.70
66928;DHT22;59882;45.624;11.698;2022-07-29T05:56:03;24.40;63.60
66928;DHT22;59882;45.624;11.698;2022-07-29T05:58:30;24.40;63.30
66928;DHT22;59882;45.624;11.698;2022-07-29T06:00:55;24.40;63.00
66928;DHT22;59882;45.624;11.698;2022-07-29T06:03:24;24.40;62.80
66928;DHT22;59882;45.624;11.698;2022-07-29T06:05:50;24.40;62.30
66928;DHT22;59882;45.624;11.698;2022-07-29T06:08:16;24.40;62.80
66928;DHT22;59882;45.624;11.698;2022-07-29T06:10:42;24.50;64.10
66928;DHT22;59882;45.624;11.698;2022-07-29T06:13:08;24.50;64.20
66928;DHT22;59882;45.624;11.698;2022-07-29T06:15:34;24.60;63.00
66928;DHT22;59882;45.624;11.698;2022-07-29T06:18:00;24.70;63.30
66928;DHT22;59882;45.624;11.698;2022-07-29T06:20:25;24.70;63.00
66928;DHT22;59882;45.624;11.698;2022-07-29T06:22:52;24.80;63.10
66928;DHT22;59882;45.624;11.698;2022-07-29T06:25:17;24.90;62.20
66928;DHT22;59882;45.624;11.698;2022-07-29T06:27:43;24.90;62.10
66928;DHT22;59882;45.624;11.698;2022-07-29T06:30:09;25.00;61.50
66928;DHT22;59882;45.624;11.698;2022-07-29T06:32:35;25.00;61.60
66928;DHT22;59882;45.624;11.698;2022-07-29T06:35:01;25.00;61.70
66928;DHT22;59882;45.624;11.698;2022-07-29T06:37:27;25.00;61.40
66928;DHT22;59882;45.624;11.698;2022-07-29T06:39:52;25.00;61.00
66928;DHT22;59882;45.624;11.698;2022-07-29T06:42:44;25.10;61.20
66928;DHT22;59882;45.624;11.698;2022-07-29T06:45:12;25.20;60.90
66928;DHT22;59882;45.624;11.698;2022-07-29T06:47:38;25.30;60.50
66928;DHT22;59882;45.624;11.698;2022-07-29T06:50:04;25.30;60.20
66928;DHT22;59882;45.624;11.698;2022-07-29T06:52:30;25.40;60.00
66928;DHT22;59882;45.624;11.698;2022-07-29T06:54:56;25.50;59.70
66928;DHT22;59882;45.624;11.698;2022-07-29T06:57:22;25.50;59.20
66928;DHT22;59882;45.624;11.698;2022-07-29T06:59:47;25.60;59.00
66928;DHT22;59882;45.624;11.698;2022-07-29T07:02:13;25.60;58.30
66928;DHT22;59882;45.624;11.698;2022-07-29T07:04:39;25.70;58.80
66928;DHT22;59882;45.624;11.698;2022-07-29T07:07:05;25.70;58.60
66928;DHT22;59882;45.624;11.698;2022-07-29T07:09:30;25.80;58.60
66928;DHT22;59882;45.624;11.698;2022-07-29T07:11:56;25.80;57.80
66928;DHT22;59882;45.624;11.698;2022-07-29T07:14:22;25.90;57.70
66928;DHT22;59882;45.624;11.698;2022-07-29T07:16:47;25.90;57.90
66928;DHT22;59882;45.624;11.698;2022-07-29T07:19:13;25.90;58.00
66928;DHT22;59882;45.624;11.698;2022-07-29T07:21:38;26.00;57.90
66928;DHT22;59882;45.624;11.698;2022-07-29T07:24:04;26.00;57.80
66928;DHT22;59882;45.624;11.698;2022-07-29T07:26:30;26.10;57.80
66928;DHT22;59882;45.624;11.698;2022-07-29T07:28:56;26.10;57.10
66928;DHT22;59882;45.624;11.698;2022-07-29T07:31:22;26.20;56.90
66928;DHT22;59882;45.624;11.698;2022-07-29T07:33:48;26.20;56.90
66928;DHT22;59882;45.624;11.698;2022-07-29T07:36:13;26.30;56.50
66928;DHT22;59882;45.624;11.698;2022-07-29T07:38:39;26.40;56.70
66928;DHT22;59882;45.624;11.698;2022-07-29T07:41:05;26.40;56.50
66928;DHT22;59882;45.624;11.698;2022-07-29T07:43:30;26.40;54.50
66928;DHT22;59882;45.624;11.698;2022-07-29T07:45:57;26.40;53.50
66928;DHT22;59882;45.624;11.698;2022-07-29T07:48:23;26.50;53.60
66928;DHT22;59882;45.624;11.698;2022-07-29T07:50:48;26.50;54.50
66928;DHT22;59882;45.624;11.698;2022-07-29T07:53:14;26.50;54.40
66928;DHT22;59882;45.624;11.698;2022-07-29T07:55:41;26.60;54.90
66928;DHT22;59882;45.624;11.698;2022-07-29T07:58:08;26.70;55.50
66928;DHT22;59882;45.624;11.698;2022-07-29T08:00:33;26.70;55.60
66928;DHT22;59882;45.624;11.698;2022-07-29T08:02:59;26.80;55.10
66928;DHT22;59882;45.624;11.698;2022-07-29T08:05:25;26.90;54.40
66928;DHT22;59882;45.624;11.698;2022-07-29T08:07:50;26.90;54.20
66928;DHT22;59882;45.624;11.698;2022-07-29T08:10:17;26.90;54.70
66928;DHT22;59882;45.624;11.698;2022-07-29T08:13:07;27.00;54.80
66928;DHT22;59882;45.624;11.698;2022-07-29T08:15:33;27.00;53.90
66928;DHT22;59882;45.624;11.698;2022-07-29T08:17:59;27.00;53.80
66928;DHT22;59882;45.624;11.698;2022-07-29T08:20:25;27.10;54.10
66928;DHT22;59882;45.624;11.698;2022-07-29T08:22:52;27.10;53.40
66928;DHT22;59882;45.624;11.698;2022-07-29T08:25:19;27.10;53.40
66928;DHT22;59882;45.624;11.698;2022-07-29T08:27:46;27.20;53.10
66928;DHT22;59882;45.624;11.698;2022-07-29T08:30:12;27.30;52.60
66928;DHT22;59882;45.624;11.698;2022-07-29T08:32:38;27.30;51.80
66928;DHT22;59882;45.624;11.698;2022-07-29T08:35:05;27.40;51.20
66928;DHT22;59882;45.624;11.698;2022-07-29T08:37:30;27.40;51.50
66928;DHT22;59882;45.624;11.698;2022-07-29T08:39:56;27.50;51.40
66928;DHT22;59882;45.624;11.698;2022-07-29T08:42:22;27.50;51.40
66928;DHT22;59882;45.624;11.698;2022-07-29T08:44:48;27.60;51.20
66928;DHT22;59882;45.624;11.698;2022-07-29T08:47:14;27.60;50.80
66928;DHT22;59882;45.624;11.698;2022-07-29T08:49:40;27.70;51.00
66928;DHT22;59882;45.624;11.698;2022-07-29T08:52:06;27.70;50.90
66928;DHT22;59882;45.624;11.698;2022-07-29T08:54:35;27.70;51.00
66928;DHT22;59882;45.624;11.698;2022-07-29T08:57:02;27.90;49.30
66928;DHT22;59882;45.624;11.698;2022-07-29T08:59:28;27.90;49.70
66928;DHT22;59882;45.624;11.698;2022-07-29T09:01:57;28.00;47.70
66928;DHT22;59882;45.624;11.698;2022-07-29T09:04:26;28.10;47.50
66928;DHT22;59882;45.624;11.698;2022-07-29T09:06:54;28.10;47.40
66928;DHT22;59882;45.624;11.698;2022-07-29T09:09:22;28.20;47.90
66928;DHT22;59882;45.624;11.698;2022-07-29T09:11:48;28.20;47.10
66928;DHT22;59882;45.624;11.698;2022-07-29T09:14:14;28.30;47.00
66928;DHT22;59882;45.624;11.698;2022-07-29T09:16:55;28.30;46.90
66928;DHT22;59882;45.624;11.698;2022-07-29T09:19:27;28.30;46.90
66928;DHT22;59882;45.624;11.698;2022-07-29T09:21:54;28.40;47.50
66928;DHT22;59882;45.624;11.698;2022-07-29T09:24:46;28.40;47.80
66928;DHT22;59882;45.624;11.698;2022-07-29T09:27:24;28.50;48.20
66928;DHT22;59882;45.624;11.698;2022-07-29T09:30:08;28.60;48.10
66928;DHT22;59882;45.624;11.698;2022-07-29T09:32:56;28.60;47.70
66928;DHT22;59882;45.624;11.698;2022-07-29T09:35:24;28.60;47.40
66928;DHT22;59882;45.624;11.698;2022-07-29T09:37:50;28.70;48.20
66928;DHT22;59882;45.624;11.698;2022-07-29T09:40:21;28.70;47.80
66928;DHT22;59882;45.624;11.698;2022-07-29T09:42:48;28.70;47.50
66928;DHT22;59882;45.624;11.698;2022-07-29T09:47:51;28.70;47.00
66928;DHT22;59882;45.624;11.698;2022-07-29T09:50:17;28.70;47.60
66928;DHT22;59882;45.624;11.698;2022-07-29T09:52:50;28.80;45.90
66928;DHT22;59882;45.624;11.698;2022-07-29T09:55:17;28.90;46.10
66928;DHT22;59882;45.624;11.698;2022-07-29T09:57:44;28.90;45.90
66928;DHT22;59882;45.624;11.698;2022-07-29T10:00:12;28.90;46.10
66928;DHT22;59882;45.624;11.698;2022-07-29T10:02:40;28.90;45.30
66928;DHT22;59882;45.624;11.698;2022-07-29T10:05:23;28.90;45.60
66928;DHT22;59882;45.624;11.698;2022-07-29T10:07:50;29.00;45.10
66928;DHT22;59882;45.624;11.698;2022-07-29T10:10:36;29.00;45.80
66928;DHT22;59882;45.624;11.698;2022-07-29T10:13:11;29.20;45.70
66928;DHT22;59882;45.624;11.698;2022-07-29T10:15:40;29.20;45.40
66928;DHT22;59882;45.624;11.698;2022-07-29T10:18:09;29.20;45.50
66928;DHT22;59882;45.624;11.698;2022-07-29T10:20:35;29.30;46.00
66928;DHT22;59882;45.624;11.698;2022-07-29T10:23:01;29.40;45.50
66928;DHT22;59882;45.624;11.698;2022-07-29T10:25:27;29.40;45.50
66928;DHT22;59882;45.624;11.698;2022-07-29T10:27:53;29.50;45.50
66928;DHT22;59882;45.624;11.698;2022-07-29T10:30:23;29.60;45.10
66928;DHT22;59882;45.624;11.698;2022-07-29T10:39:47;29.70;46.20
66928;DHT22;59882;45.624;11.698;2022-07-29T10:42:19;29.90;45.60
66928;DHT22;59882;45.624;11.698;2022-07-29T10:44:47;30.00;45.50
66928;DHT22;59882;45.624;11.698;2022-07-29T10:47:26;30.10;45.20
66928;DHT22;59882;45.624;11.698;2022-07-29T10:50:05;30.20;45.00
66928;DHT22;59882;45.624;11.698;2022-07-29T10:52:52;30.20;45.00
66928;DHT22;59882;45.624;11.698;2022-07-29T10:55:37;30.30;45.10
66928;DHT22;59882;45.624;11.698;2022-07-29T10:58:19;30.40;44.40
66928;DHT22;59882;45.624;11.698;2022-07-29T11:00:50;30.40;44.70
66928;DHT22;59882;45.624;11.698;2022-07-29T11:06:07;30.50;43.70
66928;DHT22;59882;45.624;11.698;2022-07-29T11:08:33;30.50;43.70
66928;DHT22;59882;45.624;11.698;2022-07-29T11:16:11;30.70;45.00
66928;DHT22;59882;45.624;11.698;2022-07-29T11:21:42;30.90;44.50
66928;DHT22;59882;45.624;11.698;2022-07-29T11:24:25;30.90;43.30
66928;DHT22;59882;45.624;11.698;2022-07-29T11:27:13;31.00;43.60
66928;DHT22;59882;45.624;11.698;2022-07-29T11:29:47;31.00;43.70
66928;DHT22;59882;45.624;11.698;2022-07-29T11:32:14;31.10;42.50
66928;DHT22;59882;45.624;11.698;2022-07-29T11:34:41;31.10;42.80
66928;DHT22;59882;45.624;11.698;2022-07-29T11:39:43;31.20;42.50
66928;DHT22;59882;45.624;11.698;2022-07-29T11:47:41;31.30;43.30
66928;DHT22;59882;45.624;11.698;2022-07-29T11:50:09;31.50;42.20
66928;DHT22;59882;45.624;11.698;2022-07-29T11:52:44;31.50;41.50
66928;DHT22;59882;45.624;11.698;2022-07-29T11:55:16;31.60;41.60
66928;DHT22;59882;45.624;11.698;2022-07-29T11:57:52;31.70;41.60
66928;DHT22;59882;45.624;11.698;2022-07-29T12:00:39;31.70;41.80
66928;DHT22;59882;45.624;11.698;2022-07-29T12:03:08;31.80;40.60
66928;DHT22;59882;45.624;11.698;2022-07-29T12:05:40;31.90;41.60
66928;DHT22;59882;45.624;11.698;2022-07-29T12:08:15;32.00;41.80
66928;DHT22;59882;45.624;11.698;2022-07-29T12:10:44;32.10;41.30
66928;DHT22;59882;45.624;11.698;2022-07-29T12:13:11;32.20;41.30
66928;DHT22;59882;45.624;11.698;2022-07-29T12:15:37;32.30;41.40
66928;DHT22;59882;45.624;11.698;2022-07-29T12:18:17;32.40;40.80
66928;DHT22;59882;45.624;11.698;2022-07-29T12:20:44;32.50;40.30
66928;DHT22;59882;45.624;11.698;2022-07-29T12:23:10;32.70;40.80
66928;DHT22;59882;45.624;11.698;2022-07-29T12:25:41;32.80;40.90
66928;DHT22;59882;45.624;11.698;2022-07-29T12:28:10;32.90;40.20
66928;DHT22;59882;45.624;11.698;2022-07-29T12:30:43;33.00;39.30
66928;DHT22;59882;45.624;11.698;2022-07-29T12:36:08;33.20;39.10
66928;DHT22;59882;45.624;11.698;2022-07-29T12:38:40;33.30;39.20
66928;DHT22;59882;45.624;11.698;2022-07-29T12:41:06;33.50;38.90
66928;DHT22;59882;45.624;11.698;2022-07-29T12:43:32;33.60;38.00
66928;DHT22;59882;45.624;11.698;2022-07-29T12:46:12;33.80;37.80
66928;DHT22;59882;45.624;11.698;2022-07-29T12:48:42;33.80;37.90
66928;DHT22;59882;45.624;11.698;2022-07-29T12:51:09;33.90;37.90
66928;DHT22;59882;45.624;11.698;2022-07-29T12:53:36;34.00;38.00
66928;DHT22;59882;45.624;11.698;2022-07-29T12:56:03;34.20;38.00
66928;DHT22;59882;45.624;11.698;2022-07-29T13:01:07;34.60;37.50
66928;DHT22;59882;45.624;11.698;2022-07-29T13:03:52;34.70;34.60
66928;DHT22;59882;45.624;11.698;2022-07-29T13:09:20;35.80;34.30
66928;DHT22;59882;45.624;11.698;2022-07-29T13:11:52;37.00;32.30
66928;DHT22;59882;45.624;11.698;2022-07-29T13:14:32;38.30;32.70
66928;DHT22;59882;45.624;11.698;2022-07-29T13:17:10;39.50;29.80
66928;DHT22;59882;45.624;11.698;2022-07-29T13:19:41;40.40;28.60
66928;DHT22;59882;45.624;11.698;2022-07-29T13:22:09;41.40;26.60
66928;DHT22;59882;45.624;11.698;2022-07-29T13:24:55;42.10;26.10
66928;DHT22;59882;45.624;11.698;2022-07-29T13:27:32;42.90;25.20
66928;DHT22;59882;45.624;11.698;2022-07-29T13:29:59;43.60;24.60
66928;DHT22;59882;45.624;11.698;2022-07-29T13:32:27;44.10;24.70
66928;DHT22;59882;45.624;11.698;2022-07-29T13:34:54;44.50;23.60
66928;DHT22;59882;45.624;11.698;2022-07-29T13:37:20;45.00;23.20
66928;DHT22;59882;45.624;11.698;2022-07-29T13:39:45;45.30;23.80
66928;DHT22;59882;45.624;11.698;2022-07-29T13:42:12;45.50;22.90
66928;DHT22;59882;45.624;11.698;2022-07-29T13:44:39;45.80;22.80
66928;DHT22;59882;45.624;11.698;2022-07-29T13:47:05;46.00;22.40
66928;DHT22;59882;45.624;11.698;2022-07-29T13:49:31;46.20;22.60
66928;DHT22;59882;45.624;11.698;2022-07-29T13:51:57;46.40;22.40
66928;DHT22;59882;45.624;11.698;2022-07-29T13:54:23;46.50;21.40
66928;DHT22;59882;45.624;11.698;2022-07-29T13:56:50;46.70;22.20
66928;DHT22;59882;45.624;11.698;2022-07-29T13:59:16;46.90;21.50
66928;DHT22;59882;45.624;11.698;2022-07-29T14:01:42;47.00;22.50
66928;DHT22;59882;45.624;11.698;2022-07-29T14:04:09;47.20;22.40
66928;DHT22;59882;45.624;11.698;2022-07-29T14:06:34;47.30;21.70
66928;DHT22;59882;45.624;11.698;2022-07-29T14:09:00;47.50;20.70
66928;DHT22;59882;45.624;11.698;2022-07-29T14:11:25;47.30;19.80
66928;DHT22;59882;45.624;11.698;2022-07-29T14:13:51;47.30;20.60
66928;DHT22;59882;45.624;11.698;2022-07-29T14:16:17;47.20;19.50
66928;DHT22;59882;45.624;11.698;2022-07-29T14:18:43;47.20;21.40
66928;DHT22;59882;45.624;11.698;2022-07-29T14:21:09;47.40;21.40
66928;DHT22;59882;45.624;11.698;2022-07-29T14:23:34;47.50;21.00
66928;DHT22;59882;45.624;11.698;2022-07-29T14:26:00;47.70;20.90
66928;DHT22;59882;45.624;11.698;2022-07-29T14:28:26;47.80;20.80
66928;DHT22;59882;45.624;11.698;2022-07-29T14:30:52;47.60;20.10
66928;DHT22;59882;45.624;11.698;2022-07-29T14:33:17;47.30;20.40
66928;DHT22;59882;45.624;11.698;2022-07-29T14:35:44;47.00;21.20
66928;DHT22;59882;45.624;11.698;2022-07-29T14:38:09;46.80;21.90
66928;DHT22;59882;45.624;11.698;2022-07-29T14:40:35;46.50;21.90
66928;DHT22;59882;45.624;11.698;2022-07-29T14:43:01;46.00;22.30
66928;DHT22;59882;45.624;11.698;2022-07-29T14:45:28;45.60;22.60
66928;DHT22;59882;45.624;11.698;2022-07-29T14:47:54;45.10;22.70
66928;DHT22;59882;45.624;11.698;2022-07-29T14:50:19;44.60;23.30
66928;DHT22;59882;45.624;11.698;2022-07-29T14:52:45;44.00;23.50
66928;DHT22;59882;45.624;11.698;2022-07-29T14:55:11;43.60;23.80
66928;DHT22;59882;45.624;11.698;2022-07-29T14:57:37;43.10;24.40
66928;DHT22;59882;45.624;11.698;2022-07-29T15:00:04;42.60;24.90
66928;DHT22;59882;45.624;11.698;2022-07-29T15:02:32;42.20;25.60
66928;DHT22;59882;45.624;11.698;2022-07-29T15:04:57;41.70;26.20
66928;DHT22;59882;45.624;11.698;2022-07-29T15:07:23;41.40;26.40
66928;DHT22;59882;45.624;11.698;2022-07-29T15:09:49;41.00;26.70
66928;DHT22;59882;45.624;11.698;2022-07-29T15:12:14;40.60;26.60
66928;DHT22;59882;45.624;11.698;2022-07-29T15:14:40;40.30;27.00
66928;DHT22;59882;45.624;11.698;2022-07-29T15:17:06;40.00;26.80
66928;DHT22;59882;45.624;11.698;2022-07-29T15:19:32;39.60;27.10
66928;DHT22;59882;45.624;11.698;2022-07-29T15:21:58;39.30;27.70
66928;DHT22;59882;45.624;11.698;2022-07-29T15:24:23;39.00;28.50
66928;DHT22;59882;45.624;11.698;2022-07-29T15:26:49;38.70;28.90
66928;DHT22;59882;45.624;11.698;2022-07-29T15:29:15;38.50;29.40
66928;DHT22;59882;45.624;11.698;2022-07-29T15:31:41;38.30;30.40
66928;DHT22;59882;45.624;11.698;2022-07-29T15:34:06;38.00;31.50
66928;DHT22;59882;45.624;11.698;2022-07-29T15:36:32;37.80;31.90
66928;DHT22;59882;45.624;11.698;2022-07-29T15:38:58;37.60;32.20
66928;DHT22;59882;45.624;11.698;2022-07-29T15:41:23;37.40;31.80
66928;DHT22;59882;45.624;11.698;2022-07-29T15:43:49;37.10;32.10
66928;DHT22;59882;45.624;11.698;2022-07-29T15:46:18;36.90;32.10
66928;DHT22;59882;45.624;11.698;2022-07-29T15:49:04;36.60;32.70
66928;DHT22;59882;45.624;11.698;2022-07-29T15:51:30;36.40;33.20
66928;DHT22;59882;45.624;11.698;2022-07-29T15:53:56;36.10;33.30
66928;DHT22;59882;45.624;11.698;2022-07-29T15:56:23;36.00;33.20
66928;DHT22;59882;45.624;11.698;2022-07-29T15:58:49;35.80;33.50
66928;DHT22;59882;45.624;11.698;2022-07-29T16:01:14;35.60;33.50
66928;DHT22;59882;45.624;11.698;2022-07-29T16:03:40;35.40;33.70
66928;DHT22;59882;45.624;11.698;2022-07-29T16:06:06;35.30;33.70
66928;DHT22;59882;45.624;11.698;2022-07-29T16:08:32;35.10;33.90
66928;DHT22;59882;45.624;11.698;2022-07-29T16:10:57;35.00;34.00
66928;DHT22;59882;45.624;11.698;2022-07-29T16:13:23;34.90;34.00